createdAt,value
2022-12-11T00:00:27.516Z,96.97
2022-12-11T00:02:55.300Z,98.22
2022-12-11T00:05:22.587Z,98.18
2022-12-11T00:07:49.804Z,98.42
2022-12-11T00:10:17.456Z,99.01
2022-12-11T00:12:44.868Z,99.19
2022-12-11T00:15:12.485Z,98.92
2022-12-11T00:17:40.502Z,99.39
2022-12-11T00:20:08.244Z,99.34
2022-12-11T00:22:35.529Z,99.15
2022-12-11T00:25:03.580Z,98.81
2022-12-11T00:27:30.803Z,98.31
2022-12-11T00:29:59.674Z,98.37
2022-12-11T00:32:28.550Z,98.19
2022-12-11T00:34:56.117Z,97.16
2022-12-11T00:37:23.591Z,96.74
2022-12-11T00:39:51.680Z,95.47
2022-12-11T00:42:18.985Z,94.22
2022-12-11T00:44:46.246Z,94.58
2022-12-11T00:47:13.872Z,96.10
2022-12-11T00:49:43.932Z,96.68
2022-12-11T00:52:17.957Z,97.19
2022-12-11T00:54:45.564Z,97.83
2022-12-11T00:57:12.827Z,98.15
2022-12-11T00:59:40.582Z,97.21
2022-12-11T01:02:08.084Z,97.17
2022-12-11T01:04:38.420Z,96.07
2022-12-11T01:07:06.126Z,95.34
2022-12-11T01:09:52.567Z,95.62
2022-12-11T01:12:20.334Z,95.25
2022-12-11T01:14:47.692Z,96.59
2022-12-11T01:17:14.993Z,100.00
2022-12-11T01:19:42.664Z,98.45
2022-12-11T01:22:10.065Z,98.68
2022-12-11T01:24:38.252Z,98.32
2022-12-11T01:27:05.864Z,98.20
2022-12-11T01:29:33.163Z,97.21
2022-12-11T01:32:00.406Z,97.06
2022-12-11T01:34:32.102Z,96.47
2022-12-11T01:36:59.721Z,96.71
2022-12-11T01:39:27.027Z,96.46
2022-12-11T01:41:58.612Z,96.34
2022-12-11T01:44:25.762Z,97.04
2022-12-11T01:46:53.432Z,98.70
2022-12-11T01:49:25.243Z,97.44
2022-12-11T01:52:00.808Z,100.00
2022-12-11T01:54:29.357Z,100.00
2022-12-11T01:57:00.611Z,100.00
2022-12-11T01:59:31.738Z,100.00
2022-12-11T02:02:26.566Z,100.00
2022-12-11T02:04:54.357Z,100.00
2022-12-11T02:07:22.037Z,100.00
2022-12-11T02:09:50.229Z,100.00
2022-12-11T02:12:24.017Z,100.00
2022-12-11T02:15:16.546Z,100.00
2022-12-11T02:17:47.099Z,100.00
2022-12-11T02:20:53.287Z,100.00
2022-12-11T02:23:27.124Z,100.00
2022-12-11T02:26:13.029Z,100.00
2022-12-11T02:29:14.786Z,100.00
2022-12-11T02:31:47.479Z,100.00
2022-12-11T02:34:32.769Z,99.51
2022-12-11T02:37:05.990Z,96.75
2022-12-11T02:39:39.035Z,93.56
2022-12-11T02:42:08.248Z,94.88
2022-12-11T02:44:37.194Z,91.52
2022-12-11T02:47:07.860Z,90.51
2022-12-11T02:49:36.140Z,89.15
2022-12-11T02:52:06.442Z,88.64
2022-12-11T02:54:37.966Z,88.20
2022-12-11T02:57:14.702Z,88.00
2022-12-11T02:59:44.525Z,88.52
2022-12-11T03:02:15.692Z,88.51
2022-12-11T03:04:44.842Z,88.53
2022-12-11T03:07:17.312Z,89.22
2022-12-11T03:09:47.503Z,89.46
2022-12-11T03:12:20.948Z,87.34
2022-12-11T03:14:49.877Z,90.07
2022-12-11T03:17:19.427Z,89.55
2022-12-11T03:19:49.835Z,89.97
2022-12-11T03:22:22.304Z,90.86
2022-12-11T03:24:55.319Z,89.27
2022-12-11T03:27:47.565Z,88.06
2022-12-11T03:30:18.687Z,88.89
2022-12-11T03:32:54.616Z,89.79
2022-12-11T03:35:30.620Z,90.08
2022-12-11T03:38:02.596Z,90.03
2022-12-11T03:40:33.367Z,89.10
2022-12-11T03:43:01.096Z,89.21
2022-12-11T03:45:30.458Z,88.47
2022-12-11T03:48:01.743Z,88.78
2022-12-11T03:50:32.293Z,88.21
2022-12-11T03:53:02.022Z,86.69
2022-12-11T03:55:30.916Z,86.85
2022-12-11T03:57:58.310Z,86.26
2022-12-11T04:00:25.935Z,83.58
2022-12-11T04:03:13.877Z,84.69
2022-12-11T04:05:50.277Z,84.54
2022-12-11T04:08:21.085Z,84.60
2022-12-11T04:10:49.204Z,85.53
2022-12-11T04:13:16.504Z,84.03
2022-12-11T04:15:44.144Z,83.90
2022-12-11T04:18:29.963Z,84.12
2022-12-11T04:21:16.175Z,84.51
2022-12-11T04:24:01.792Z,83.92
2022-12-11T04:26:29.374Z,84.60
2022-12-11T04:28:56.718Z,85.09
2022-12-11T04:31:24.490Z,84.55
2022-12-11T04:33:52.475Z,84.54
2022-12-11T04:36:19.823Z,83.16
2022-12-11T04:38:48.098Z,82.76
2022-12-11T04:41:17.691Z,83.79
2022-12-11T04:43:45.568Z,82.97
2022-12-11T04:46:20.130Z,80.73
2022-12-11T04:48:55.472Z,81.95
2022-12-11T04:51:24.940Z,81.76
2022-12-11T04:53:54.458Z,82.01
2022-12-11T04:56:21.930Z,81.91
2022-12-11T04:58:49.971Z,81.06
2022-12-11T05:01:20.531Z,80.40
2022-12-11T05:03:48.468Z,81.05
2022-12-11T05:06:15.985Z,81.63
2022-12-11T05:08:45.345Z,80.79
2022-12-11T05:11:16.516Z,79.50
2022-12-11T05:13:45.839Z,80.95
2022-12-11T05:16:15.966Z,82.93
2022-12-11T05:18:43.885Z,82.79
2022-12-11T05:21:13.948Z,82.22
2022-12-11T05:23:42.400Z,82.33
2022-12-11T05:26:15.879Z,83.45
2022-12-11T05:28:44.083Z,83.72
2022-12-11T05:31:19.882Z,83.36
2022-12-11T05:33:49.094Z,83.83
2022-12-11T05:36:23.019Z,84.41
2022-12-11T05:38:51.537Z,87.86
2022-12-11T05:41:22.455Z,87.30
2022-12-11T05:43:50.312Z,86.91
2022-12-11T05:46:29.861Z,86.76
2022-12-11T05:48:59.705Z,86.15
2022-12-11T05:51:28.220Z,87.38
2022-12-11T05:53:57.786Z,88.02
2022-12-11T05:56:31.483Z,88.49
2022-12-11T05:59:00.597Z,87.26
2022-12-11T06:01:34.746Z,86.66
2022-12-11T06:04:03.625Z,86.80
2022-12-11T06:06:30.974Z,87.50
2022-12-11T06:08:59.203Z,86.73
2022-12-11T06:11:33.018Z,85.34
2022-12-11T06:14:03.870Z,86.23
2022-12-11T06:16:32.312Z,86.10
2022-12-11T06:18:59.987Z,87.21
2022-12-11T06:21:32.610Z,87.22
2022-12-11T06:24:03.321Z,85.43
2022-12-11T06:26:32.336Z,86.34
2022-12-11T06:29:00.139Z,85.09
2022-12-11T06:31:28.141Z,86.32
2022-12-11T06:33:56.102Z,86.69
2022-12-11T06:36:24.549Z,85.54
2022-12-11T06:38:52.520Z,86.44
2022-12-11T06:41:20.000Z,86.41
2022-12-11T06:43:47.685Z,86.69
2022-12-11T06:46:18.282Z,87.29
2022-12-11T06:48:46.480Z,86.86
2022-12-11T06:51:20.686Z,88.02
2022-12-11T06:53:56.454Z,88.70
2022-12-11T06:56:25.040Z,87.29
2022-12-11T06:58:52.549Z,87.69
2022-12-11T07:01:25.416Z,87.29
2022-12-11T07:03:58.490Z,87.43
2022-12-11T07:06:28.545Z,87.84
2022-12-11T07:08:56.956Z,87.11
2022-12-11T07:11:24.328Z,87.69
2022-12-11T07:13:51.703Z,87.65
2022-12-11T07:16:19.693Z,85.26
2022-12-11T07:18:49.402Z,82.60
2022-12-11T07:21:17.245Z,80.40
2022-12-11T07:23:45.070Z,80.04
2022-12-11T07:26:15.294Z,82.38
2022-12-11T07:28:43.229Z,82.75
2022-12-11T07:31:13.701Z,78.19
2022-12-11T07:33:42.490Z,81.55
2022-12-11T07:36:12.339Z,82.07
2022-12-11T07:38:40.717Z,81.67
2022-12-11T07:41:11.235Z,81.26
2022-12-11T07:43:38.954Z,79.52
2022-12-11T07:46:09.738Z,78.58
2022-12-11T07:48:38.328Z,76.30
2022-12-11T07:51:10.719Z,79.17
2022-12-11T07:53:39.224Z,78.76
2022-12-11T07:56:07.510Z,74.49
2022-12-11T07:58:36.215Z,74.44
2022-12-11T08:01:03.881Z,74.60
2022-12-11T08:03:31.691Z,75.86
2022-12-11T08:05:59.063Z,75.19
2022-12-11T08:08:26.478Z,72.82
2022-12-11T08:10:54.399Z,73.49
2022-12-11T08:13:21.781Z,72.51
2022-12-11T08:15:49.206Z,71.65
2022-12-11T08:18:16.866Z,72.33
2022-12-11T08:20:44.223Z,71.13
2022-12-11T08:23:12.144Z,69.89
2022-12-11T08:25:39.843Z,69.68
2022-12-11T08:28:07.349Z,69.75
2022-12-11T08:30:34.856Z,68.55
2022-12-11T08:33:02.591Z,65.90
2022-12-11T08:35:29.880Z,68.02
2022-12-11T08:37:57.169Z,69.62
2022-12-11T08:40:24.976Z,69.15
2022-12-11T08:42:52.538Z,69.40
2022-12-11T08:45:19.884Z,68.08
2022-12-11T08:47:47.565Z,66.42
2022-12-11T08:50:14.844Z,67.54
2022-12-11T08:52:42.287Z,67.66
2022-12-11T08:55:10.457Z,67.30
2022-12-11T08:57:39.904Z,66.70
2022-12-11T09:00:09.691Z,67.61
2022-12-11T09:02:37.403Z,66.12
2022-12-11T09:05:08.242Z,66.02
2022-12-11T09:07:37.022Z,66.30
2022-12-11T09:10:06.425Z,66.33
2022-12-11T09:12:34.804Z,68.72
2022-12-11T09:15:02.548Z,65.49
2022-12-11T09:17:30.924Z,67.10
2022-12-11T09:19:58.228Z,69.31
2022-12-11T09:22:25.539Z,69.19
2022-12-11T09:24:53.264Z,67.06
2022-12-11T09:27:21.526Z,65.48
2022-12-11T09:29:49.418Z,66.69
2022-12-11T09:32:17.449Z,67.87
2022-12-11T09:34:44.932Z,64.80
2022-12-11T09:37:12.257Z,66.92
2022-12-11T09:39:39.877Z,65.87
2022-12-11T09:42:13.235Z,66.19
2022-12-11T09:44:43.795Z,67.76
2022-12-11T09:47:25.361Z,67.29
2022-12-11T09:50:13.021Z,65.01
2022-12-11T09:52:49.606Z,65.50
2022-12-11T09:55:20.550Z,64.24
2022-12-11T09:58:06.549Z,64.35
2022-12-11T10:00:41.385Z,65.37
2022-12-11T10:03:35.434Z,64.12
2022-12-11T10:06:21.461Z,64.11
2022-12-11T10:09:24.557Z,61.88
2022-12-11T10:12:13.918Z,62.76
2022-12-11T10:14:59.835Z,62.60
2022-12-11T10:17:34.157Z,63.39
2022-12-11T10:20:31.331Z,64.97
2022-12-11T10:22:59.561Z,63.08
2022-12-11T10:25:35.711Z,63.81
2022-12-11T10:28:14.974Z,63.83
2022-12-11T10:30:51.712Z,66.36
2022-12-11T10:33:34.841Z,66.11
2022-12-11T10:36:02.556Z,63.78
2022-12-11T10:38:38.500Z,62.74
2022-12-11T10:41:13.993Z,65.49
2022-12-11T10:43:49.862Z,64.91
2022-12-11T10:46:21.494Z,70.22
2022-12-11T10:48:53.590Z,71.51
2022-12-11T10:51:35.070Z,71.63
2022-12-11T10:54:24.462Z,74.51
2022-12-11T10:56:52.271Z,75.47
2022-12-11T10:59:49.434Z,75.87
2022-12-11T11:02:25.695Z,75.43
2022-12-11T11:04:55.360Z,76.87
2022-12-11T11:07:33.336Z,78.05
2022-12-11T11:10:15.683Z,78.43
2022-12-11T11:12:50.638Z,75.94
2022-12-11T11:15:25.910Z,77.31
2022-12-11T11:17:56.308Z,75.72
2022-12-11T11:20:27.924Z,75.90
2022-12-11T11:22:59.982Z,76.43
2022-12-11T11:25:29.978Z,75.13
2022-12-11T11:28:01.353Z,73.41
2022-12-11T11:30:36.912Z,73.35
2022-12-11T11:33:17.885Z,75.06
2022-12-11T11:36:02.548Z,73.30
2022-12-11T11:38:36.380Z,73.94
2022-12-11T11:41:19.205Z,71.88
2022-12-11T11:43:49.180Z,71.99
2022-12-11T11:46:33.638Z,72.51
2022-12-11T11:49:15.116Z,72.36
2022-12-11T11:52:01.316Z,73.11
2022-12-11T11:54:35.840Z,71.64
2022-12-11T11:57:17.890Z,71.85
2022-12-11T11:59:51.031Z,71.30
2022-12-11T12:02:20.185Z,71.65
2022-12-11T12:04:49.582Z,70.19
2022-12-11T12:07:22.909Z,71.30
2022-12-11T12:10:26.860Z,69.47
2022-12-11T12:13:44.345Z,68.99
2022-12-11T12:16:02.238Z,70.37
2022-12-11T12:18:44.376Z,69.88
2022-12-11T12:21:27.963Z,69.78
2022-12-11T12:24:06.905Z,69.29
2022-12-11T12:26:37.579Z,69.47
2022-12-11T12:29:16.997Z,70.10
2022-12-11T12:32:23.662Z,71.47
2022-12-11T12:35:22.200Z,71.99
2022-12-11T12:37:57.457Z,73.16
2022-12-11T12:40:43.847Z,72.21
2022-12-11T12:43:23.766Z,73.43
2022-12-11T12:46:10.532Z,75.60
2022-12-11T12:48:38.841Z,73.37
2022-12-11T12:51:07.173Z,73.40
2022-12-11T12:53:37.093Z,73.92
2022-12-11T12:56:06.413Z,73.46
2022-12-11T12:58:39.898Z,75.29
2022-12-11T13:01:14.697Z,78.22
2022-12-11T13:04:02.441Z,77.55
2022-12-11T13:06:37.859Z,76.45
2022-12-11T13:09:25.310Z,78.10
2022-12-11T13:11:58.197Z,78.63
2022-12-11T13:14:31.257Z,77.78
2022-12-11T13:17:21.614Z,77.30
2022-12-11T13:19:53.143Z,74.83
2022-12-11T13:22:23.560Z,78.09
2022-12-11T13:24:53.856Z,77.13
2022-12-11T13:27:37.368Z,75.83
2022-12-11T13:30:26.506Z,75.53
2022-12-11T13:33:08.008Z,76.47
2022-12-11T13:35:35.913Z,76.76
2022-12-11T13:38:08.172Z,77.16
2022-12-11T13:40:41.114Z,79.46
2022-12-11T13:43:26.305Z,79.15
2022-12-11T13:46:00.812Z,82.45
2022-12-11T13:48:31.450Z,85.23
2022-12-11T13:50:59.851Z,85.83
2022-12-11T13:53:27.219Z,88.04
2022-12-11T13:56:07.065Z,88.37
2022-12-11T13:58:38.724Z,90.16
2022-12-11T14:01:32.751Z,94.29
2022-12-11T14:04:16.221Z,93.22
2022-12-11T14:06:44.156Z,93.32
2022-12-11T14:09:22.140Z,91.27
2022-12-11T14:11:56.438Z,92.32
2022-12-11T14:14:29.196Z,91.83
2022-12-11T14:16:56.756Z,91.69
2022-12-11T14:19:25.163Z,93.60
2022-12-11T14:21:58.696Z,95.22
2022-12-11T14:24:26.188Z,93.26
2022-12-11T14:26:54.615Z,91.31
2022-12-11T14:29:28.178Z,94.77
2022-12-11T14:31:57.675Z,94.11
2022-12-11T14:34:35.719Z,92.87
2022-12-11T14:37:06.544Z,93.33
2022-12-11T14:40:00.105Z,93.15
2022-12-11T14:42:32.836Z,93.53
2022-12-11T14:45:20.311Z,91.86
2022-12-11T14:47:48.600Z,90.96
2022-12-11T14:50:23.617Z,91.72
2022-12-11T14:52:59.217Z,89.61
2022-12-11T14:55:35.405Z,89.39
2022-12-11T14:58:15.461Z,89.11
2022-12-11T15:00:42.800Z,90.42
2022-12-11T15:03:10.422Z,90.03
2022-12-11T15:05:49.950Z,89.42
2022-12-11T15:08:30.509Z,91.00
2022-12-11T15:11:08.231Z,89.77
2022-12-11T15:13:51.430Z,91.92
2022-12-11T15:16:20.265Z,91.57
2022-12-11T15:18:49.681Z,89.65
2022-12-11T15:21:17.930Z,91.26
2022-12-11T15:23:45.177Z,91.93
2022-12-11T15:26:12.932Z,90.05
2022-12-11T15:28:40.365Z,93.08
2022-12-11T15:31:25.695Z,90.75
2022-12-11T15:33:53.870Z,90.94
2022-12-11T15:36:24.202Z,92.38
2022-12-11T15:38:51.565Z,92.15
2022-12-11T15:41:26.620Z,91.50
2022-12-11T15:43:58.903Z,91.88
2022-12-11T15:46:27.463Z,93.71
2022-12-11T15:48:56.493Z,91.75
2022-12-11T15:51:23.824Z,92.23
2022-12-11T15:53:51.501Z,92.23
2022-12-11T15:56:18.872Z,90.34
2022-12-11T15:58:47.772Z,90.53
2022-12-11T16:01:15.343Z,89.98
2022-12-11T16:03:43.151Z,91.81
2022-12-11T16:06:13.769Z,89.77
2022-12-11T16:08:42.426Z,90.26
2022-12-11T16:11:15.429Z,91.55
2022-12-11T16:13:43.206Z,91.22
2022-12-11T16:16:10.939Z,91.53
2022-12-11T16:18:38.249Z,91.36
2022-12-11T16:21:06.713Z,93.25
2022-12-11T16:23:34.406Z,91.17
2022-12-11T16:26:06.876Z,91.78
2022-12-11T16:28:34.425Z,90.10
2022-12-11T16:31:02.101Z,90.46
2022-12-11T16:33:29.516Z,91.07
2022-12-11T16:35:57.979Z,92.25
2022-12-11T16:38:25.593Z,92.29
2022-12-11T16:41:02.563Z,93.07
2022-12-11T16:43:30.291Z,93.15
2022-12-11T16:45:57.745Z,90.88
2022-12-11T16:48:25.157Z,92.90
2022-12-11T16:50:59.227Z,93.58
2022-12-11T16:53:26.499Z,93.27
2022-12-11T16:55:54.143Z,92.08
2022-12-11T16:58:21.571Z,92.95
2022-12-11T17:00:49.785Z,92.99
2022-12-11T17:03:19.260Z,91.75
2022-12-11T17:05:47.762Z,92.32
2022-12-11T17:08:15.287Z,91.92
2022-12-11T17:10:44.413Z,90.94
2022-12-11T17:13:11.822Z,91.54
2022-12-11T17:15:43.738Z,92.04
2022-12-11T17:18:12.095Z,91.08
2022-12-11T17:20:43.836Z,92.40
2022-12-11T17:23:12.614Z,91.07
2022-12-11T17:25:44.870Z,90.34
2022-12-11T17:28:13.775Z,88.66
2022-12-11T17:30:42.858Z,90.89
2022-12-11T17:33:11.196Z,91.83
2022-12-11T17:35:39.194Z,91.79
2022-12-11T17:38:06.567Z,91.18
2022-12-11T17:40:34.012Z,90.21
2022-12-11T17:43:02.140Z,89.62
2022-12-11T17:45:29.480Z,91.81
2022-12-11T17:47:56.875Z,90.09
2022-12-11T17:50:24.511Z,90.31
2022-12-11T17:52:52.165Z,88.61
2022-12-11T17:55:19.603Z,87.14
2022-12-11T17:57:49.194Z,85.69
2022-12-11T18:00:17.044Z,87.99
2022-12-11T18:02:44.764Z,85.69
2022-12-11T18:05:12.522Z,85.55
2022-12-11T18:07:40.273Z,84.59
2022-12-11T18:10:10.994Z,86.51
2022-12-11T18:12:39.434Z,86.66
2022-12-11T18:15:07.814Z,85.99
2022-12-11T18:17:35.614Z,88.44
2022-12-11T18:20:03.796Z,87.52
2022-12-11T18:22:31.306Z,86.08
2022-12-11T18:24:59.005Z,87.20
2022-12-11T18:27:26.496Z,85.54
2022-12-11T18:29:54.859Z,85.90
2022-12-11T18:32:23.895Z,87.71
2022-12-11T18:34:51.302Z,86.14
2022-12-11T18:37:21.179Z,86.05
2022-12-11T18:39:53.584Z,88.35
2022-12-11T18:42:36.164Z,87.60
2022-12-11T18:45:04.478Z,87.50
2022-12-11T18:47:31.820Z,89.24
2022-12-11T18:50:03.953Z,89.25
2022-12-11T18:52:37.090Z,90.15
2022-12-11T18:55:05.013Z,89.00
2022-12-11T18:57:34.737Z,90.18
2022-12-11T19:00:07.633Z,90.59
2022-12-11T19:02:35.758Z,90.88
2022-12-11T19:05:03.086Z,89.17
2022-12-11T19:07:30.877Z,88.64
2022-12-11T19:09:58.428Z,89.55
2022-12-11T19:12:26.387Z,89.62
2022-12-11T19:14:54.743Z,88.82
2022-12-11T19:17:22.617Z,89.19
2022-12-11T19:19:52.691Z,91.10
2022-12-11T19:22:20.751Z,91.86
2022-12-11T19:24:48.026Z,89.39
2022-12-11T19:27:15.244Z,89.72
2022-12-11T19:29:42.938Z,89.07
2022-12-11T19:32:10.341Z,90.63
2022-12-11T19:34:38.731Z,89.05
2022-12-11T19:37:06.579Z,89.36
2022-12-11T19:39:34.113Z,89.74
2022-12-11T19:42:01.635Z,91.09
2022-12-11T19:44:29.383Z,89.99
2022-12-11T19:46:56.868Z,89.81
2022-12-11T19:49:24.401Z,90.46
2022-12-11T19:51:52.090Z,88.46
2022-12-11T19:54:19.522Z,90.22
2022-12-11T19:56:46.918Z,90.04
2022-12-11T19:59:17.862Z,89.49
2022-12-11T20:01:48.168Z,88.45
2022-12-11T20:04:16.950Z,88.06
2022-12-11T20:06:46.357Z,88.96
2022-12-11T20:09:14.361Z,89.32
2022-12-11T20:11:48.449Z,90.37
2022-12-11T20:14:23.139Z,88.31
2022-12-11T20:19:40.164Z,89.43
2022-12-11T20:22:08.038Z,88.69
2022-12-11T20:24:36.337Z,89.01
2022-12-11T20:27:04.056Z,88.63
2022-12-11T20:29:32.260Z,88.20
2022-12-11T20:32:00.584Z,88.55
2022-12-11T20:34:28.392Z,89.55
2022-12-11T20:36:56.513Z,87.18
2022-12-11T20:39:24.875Z,88.40
2022-12-11T20:41:52.195Z,87.49
2022-12-11T20:44:20.477Z,86.70
2022-12-11T20:46:47.845Z,88.42
2022-12-11T20:49:15.183Z,87.50
2022-12-11T20:51:42.995Z,86.94
2022-12-11T20:54:10.333Z,87.90
2022-12-11T20:56:38.184Z,87.81
2022-12-11T20:59:06.071Z,88.55
2022-12-11T21:01:35.022Z,88.05
2022-12-11T21:04:02.763Z,84.71
2022-12-11T21:06:33.557Z,85.38
2022-12-11T21:09:06.503Z,84.91
2022-12-11T21:11:34.631Z,85.64
2022-12-11T21:14:02.026Z,87.25
2022-12-11T21:16:29.633Z,87.65
2022-12-11T21:18:58.948Z,87.81
2022-12-11T21:21:26.693Z,89.11
2022-12-11T21:23:54.105Z,88.42
2022-12-11T21:26:21.961Z,87.43
2022-12-11T21:28:49.388Z,87.05
2022-12-11T21:31:18.694Z,88.15
2022-12-11T21:33:47.103Z,86.98
2022-12-11T21:36:15.895Z,87.03
2022-12-11T21:38:44.595Z,87.90
2022-12-11T21:41:16.704Z,85.84
2022-12-11T21:44:40.834Z,87.01
2022-12-11T21:46:35.288Z,86.83
2022-12-11T21:49:02.765Z,86.56
2022-12-11T21:51:37.776Z,87.74
2022-12-11T21:54:10.481Z,86.82
2022-12-11T21:56:37.810Z,87.83
2022-12-11T21:59:05.465Z,87.87
2022-12-11T22:01:41.147Z,88.85
2022-12-11T22:04:10.940Z,89.40
2022-12-11T22:06:38.338Z,88.98
2022-12-11T22:09:06.004Z,89.61
2022-12-11T22:11:36.485Z,90.53
2022-12-11T22:14:04.982Z,89.90
2022-12-11T22:16:33.254Z,90.41
2022-12-11T22:19:01.155Z,90.35
2022-12-11T22:21:29.033Z,90.13
2022-12-11T22:23:56.556Z,89.14
2022-12-11T22:26:26.958Z,89.32
2022-12-11T22:28:55.497Z,89.21
2022-12-11T22:31:25.137Z,89.08
2022-12-11T22:33:55.083Z,87.89
2022-12-11T22:36:23.039Z,89.15
2022-12-11T22:38:50.390Z,88.45
2022-12-11T22:41:26.416Z,91.41
2022-12-11T22:43:54.808Z,91.63
2022-12-11T22:46:24.501Z,91.21
2022-12-11T22:48:52.632Z,91.54
2022-12-11T22:51:20.810Z,91.99
2022-12-11T22:53:48.595Z,92.10
2022-12-11T22:56:16.541Z,92.10
2022-12-11T22:58:43.890Z,91.41
2022-12-11T23:01:15.279Z,90.12
2022-12-11T23:03:42.772Z,91.13
2022-12-11T23:06:12.779Z,89.45
2022-12-11T23:08:41.482Z,89.45
2022-12-11T23:11:15.596Z,91.59
2022-12-11T23:13:44.575Z,91.11
2022-12-11T23:16:12.842Z,90.64
2022-12-11T23:18:40.654Z,91.14
2022-12-11T23:21:09.175Z,91.47
2022-12-11T23:23:36.569Z,91.32
2022-12-11T23:26:05.319Z,89.68
2022-12-11T23:28:33.023Z,89.76
2022-12-11T23:31:00.688Z,90.32
2022-12-11T23:33:28.089Z,91.49
2022-12-11T23:35:55.830Z,92.11
2022-12-11T23:38:23.409Z,91.32
2022-12-11T23:40:52.205Z,92.94
2022-12-11T23:43:20.054Z,91.78
2022-12-11T23:45:47.427Z,92.56
2022-12-11T23:48:15.025Z,91.23
2022-12-11T23:50:44.076Z,92.96
2022-12-11T23:53:12.017Z,93.49
2022-12-11T23:55:41.659Z,94.80
2022-12-11T23:58:10.916Z,95.81
